sensor_id;sensor_type;location;lat;lon;timestamp;P1;durP1;ratioP1;P2;durP2;ratioP2
8642;SDS011;4359;49.358;11.256;2023-07-31T00:00:14;11.32;;;3.65;;
8642;SDS011;4359;49.358;11.256;2023-07-31T00:02:40;5.88;;;2.75;;
8642;SDS011;4359;49.358;11.256;2023-07-31T00:05:07;4.72;;;2.40;;
8642;SDS011;4359;49.358;11.256;2023-07-31T00:07:34;7.90;;;2.80;;
8642;SDS011;4359;49.358;11.256;2023-07-31T00:09:59;7.40;;;2.70;;
8642;SDS011;4359;49.358;11.256;2023-07-31T00:12:25;7.35;;;2.88;;
8642;SDS011;4359;49.358;11.256;2023-07-31T00:14:51;5.63;;;3.03;;
8642;SDS011;4359;49.358;11.256;2023-07-31T00:17:17;47.13;;;5.28;;
8642;SDS011;4359;49.358;11.256;2023-07-31T00:19:43;7.13;;;2.85;;
8642;SDS011;4359;49.358;11.256;2023-07-31T00:22:11;8.35;;;3.35;;
8642;SDS011;4359;49.358;11.256;2023-07-31T00:24:36;11.23;;;2.80;;
8642;SDS011;4359;49.358;11.256;2023-07-31T00:27:02;5.72;;;2.67;;
8642;SDS011;4359;49.358;11.256;2023-07-31T00:29:28;9.40;;;2.60;;
8642;SDS011;4359;49.358;11.256;2023-07-31T00:31:53;6.47;;;2.75;;
8642;SDS011;4359;49.358;11.256;2023-07-31T00:34:19;6.40;;;3.05;;
8642;SDS011;4359;49.358;11.256;2023-07-31T00:36:45;6.78;;;2.70;;
8642;SDS011;4359;49.358;11.256;2023-07-31T00:39:10;6.97;;;2.83;;
8642;SDS011;4359;49.358;11.256;2023-07-31T00:41:36;6.53;;;2.60;;
8642;SDS011;4359;49.358;11.256;2023-07-31T00:44:01;7.32;;;2.50;;
8642;SDS011;4359;49.358;11.256;2023-07-31T00:46:27;7.28;;;2.88;;
8642;SDS011;4359;49.358;11.256;2023-07-31T00:48:53;7.35;;;2.90;;
8642;SDS011;4359;49.358;11.256;2023-07-31T00:51:18;5.78;;;2.50;;
8642;SDS011;4359;49.358;11.256;2023-07-31T00:53:45;6.38;;;2.63;;
8642;SDS011;4359;49.358;11.256;2023-07-31T00:56:11;6.53;;;2.85;;
8642;SDS011;4359;49.358;11.256;2023-07-31T00:58:38;4.40;;;2.50;;
8642;SDS011;4359;49.358;11.256;2023-07-31T01:01:04;9.23;;;2.72;;
8642;SDS011;4359;49.358;11.256;2023-07-31T01:03:30;5.25;;;2.80;;
8642;SDS011;4359;49.358;11.256;2023-07-31T01:09:04;3.60;;;2.40;;
8642;SDS011;4359;49.358;11.256;2023-07-31T01:11:52;7.68;;;3.00;;
8642;SDS011;4359;49.358;11.256;2023-07-31T01:14:21;9.25;;;2.70;;
8642;SDS011;4359;49.358;11.256;2023-07-31T01:16:47;6.22;;;2.95;;
8642;SDS011;4359;49.358;11.256;2023-07-31T01:19:14;11.27;;;3.67;;
8642;SDS011;4359;49.358;11.256;2023-07-31T01:24:35;8.18;;;2.75;;
8642;SDS011;4359;49.358;11.256;2023-07-31T01:27:14;6.18;;;2.50;;
8642;SDS011;4359;49.358;11.256;2023-07-31T01:32:17;7.05;;;2.80;;
8642;SDS011;4359;49.358;11.256;2023-07-31T01:34:44;7.57;;;3.00;;
8642;SDS011;4359;49.358;11.256;2023-07-31T01:37:11;9.32;;;2.95;;
8642;SDS011;4359;49.358;11.256;2023-07-31T01:39:37;5.05;;;2.42;;
8642;SDS011;4359;49.358;11.256;2023-07-31T01:42:03;6.38;;;2.53;;
8642;SDS011;4359;49.358;11.256;2023-07-31T01:44:28;7.75;;;3.25;;
8642;SDS011;4359;49.358;11.256;2023-07-31T01:46:54;6.13;;;3.00;;
8642;SDS011;4359;49.358;11.256;2023-07-31T01:49:20;3.75;;;2.33;;
8642;SDS011;4359;49.358;11.256;2023-07-31T01:51:46;5.25;;;2.60;;
8642;SDS011;4359;49.358;11.256;2023-07-31T01:54:11;6.30;;;2.78;;
8642;SDS011;4359;49.358;11.256;2023-07-31T01:56:37;7.68;;;3.40;;
8642;SDS011;4359;49.358;11.256;2023-07-31T01:59:02;9.20;;;2.90;;
8642;SDS011;4359;49.358;11.256;2023-07-31T02:01:28;5.93;;;2.55;;
8642;SDS011;4359;49.358;11.256;2023-07-31T02:03:54;5.53;;;2.15;;
8642;SDS011;4359;49.358;11.256;2023-07-31T02:06:19;7.75;;;3.13;;
8642;SDS011;4359;49.358;11.256;2023-07-31T02:08:45;4.15;;;2.20;;
8642;SDS011;4359;49.358;11.256;2023-07-31T02:11:11;8.85;;;2.55;;
8642;SDS011;4359;49.358;11.256;2023-07-31T02:13:36;5.03;;;2.28;;
8642;SDS011;4359;49.358;11.256;2023-07-31T02:16:02;8.07;;;2.60;;
8642;SDS011;4359;49.358;11.256;2023-07-31T02:18:28;5.53;;;2.40;;
8642;SDS011;4359;49.358;11.256;2023-07-31T02:20:53;6.38;;;2.45;;
8642;SDS011;4359;49.358;11.256;2023-07-31T02:23:19;8.25;;;2.55;;
8642;SDS011;4359;49.358;11.256;2023-07-31T02:25:45;9.60;;;2.83;;
8642;SDS011;4359;49.358;11.256;2023-07-31T02:28:11;4.07;;;2.47;;
8642;SDS011;4359;49.358;11.256;2023-07-31T02:30:37;7.68;;;3.60;;
8642;SDS011;4359;49.358;11.256;2023-07-31T02:33:25;7.05;;;3.10;;
8642;SDS011;4359;49.358;11.256;2023-07-31T02:35:51;12.52;;;2.92;;
8642;SDS011;4359;49.358;11.256;2023-07-31T02:38:16;5.30;;;2.63;;
8642;SDS011;4359;49.358;11.256;2023-07-31T02:40:42;8.20;;;2.70;;
8642;SDS011;4359;49.358;11.256;2023-07-31T02:43:08;5.15;;;2.50;;
8642;SDS011;4359;49.358;11.256;2023-07-31T02:45:34;4.65;;;2.55;;
8642;SDS011;4359;49.358;11.256;2023-07-31T02:48:00;6.07;;;2.67;;
8642;SDS011;4359;49.358;11.256;2023-07-31T02:50:25;5.43;;;2.30;;
8642;SDS011;4359;49.358;11.256;2023-07-31T02:52:52;6.43;;;2.50;;
8642;SDS011;4359;49.358;11.256;2023-07-31T02:55:18;5.60;;;2.22;;
8642;SDS011;4359;49.358;11.256;2023-07-31T02:57:44;7.38;;;2.05;;
8642;SDS011;4359;49.358;11.256;2023-07-31T03:00:10;6.20;;;2.00;;
8642;SDS011;4359;49.358;11.256;2023-07-31T03:02:35;4.75;;;2.13;;
8642;SDS011;4359;49.358;11.256;2023-07-31T03:05:01;15.55;;;3.97;;
8642;SDS011;4359;49.358;11.256;2023-07-31T03:07:27;5.15;;;1.90;;
8642;SDS011;4359;49.358;11.256;2023-07-31T03:09:53;5.00;;;1.98;;
8642;SDS011;4359;49.358;11.256;2023-07-31T03:12:19;5.95;;;2.20;;
8642;SDS011;4359;49.358;11.256;2023-07-31T03:14:45;7.30;;;2.17;;
8642;SDS011;4359;49.358;11.256;2023-07-31T03:17:10;5.78;;;2.53;;
8642;SDS011;4359;49.358;11.256;2023-07-31T03:19:36;4.90;;;1.98;;
8642;SDS011;4359;49.358;11.256;2023-07-31T03:22:02;7.43;;;2.28;;
8642;SDS011;4359;49.358;11.256;2023-07-31T03:24:28;4.13;;;1.80;;
8642;SDS011;4359;49.358;11.256;2023-07-31T03:26:54;5.60;;;1.92;;
8642;SDS011;4359;49.358;11.256;2023-07-31T03:29:20;10.48;;;2.20;;
8642;SDS011;4359;49.358;11.256;2023-07-31T03:31:45;5.68;;;1.80;;
8642;SDS011;4359;49.358;11.256;2023-07-31T03:34:11;5.18;;;2.00;;
8642;SDS011;4359;49.358;11.256;2023-07-31T03:36:37;6.03;;;2.20;;
8642;SDS011;4359;49.358;11.256;2023-07-31T03:39:02;5.55;;;1.90;;
8642;SDS011;4359;49.358;11.256;2023-07-31T03:41:28;4.68;;;1.90;;
8642;SDS011;4359;49.358;11.256;2023-07-31T03:43:54;5.07;;;1.83;;
8642;SDS011;4359;49.358;11.256;2023-07-31T03:46:22;6.78;;;2.08;;
8642;SDS011;4359;49.358;11.256;2023-07-31T03:48:51;9.32;;;2.42;;
8642;SDS011;4359;49.358;11.256;2023-07-31T03:51:17;6.75;;;2.17;;
8642;SDS011;4359;49.358;11.256;2023-07-31T03:53:43;8.80;;;2.25;;
8642;SDS011;4359;49.358;11.256;2023-07-31T03:56:09;4.97;;;2.00;;
8642;SDS011;4359;49.358;11.256;2023-07-31T03:58:35;6.00;;;2.00;;
8642;SDS011;4359;49.358;11.256;2023-07-31T04:01:02;6.00;;;2.05;;
8642;SDS011;4359;49.358;11.256;2023-07-31T04:03:28;7.82;;;2.40;;
8642;SDS011;4359;49.358;11.256;2023-07-31T04:05:54;6.07;;;1.88;;
8642;SDS011;4359;49.358;11.256;2023-07-31T04:08:23;6.68;;;2.20;;
8642;SDS011;4359;49.358;11.256;2023-07-31T04:10:49;8.23;;;2.83;;
8642;SDS011;4359;49.358;11.256;2023-07-31T04:13:15;5.90;;;2.00;;
8642;SDS011;4359;49.358;11.256;2023-07-31T04:15:41;6.55;;;2.10;;
8642;SDS011;4359;49.358;11.256;2023-07-31T04:18:07;5.15;;;1.75;;
8642;SDS011;4359;49.358;11.256;2023-07-31T04:20:33;7.80;;;2.20;;
8642;SDS011;4359;49.358;11.256;2023-07-31T04:22:59;5.60;;;1.90;;
8642;SDS011;4359;49.358;11.256;2023-07-31T04:25:24;3.47;;;1.50;;
8642;SDS011;4359;49.358;11.256;2023-07-31T04:27:50;6.75;;;2.08;;
8642;SDS011;4359;49.358;11.256;2023-07-31T04:30:16;4.93;;;2.25;;
8642;SDS011;4359;49.358;11.256;2023-07-31T04:32:41;5.97;;;1.90;;
8642;SDS011;4359;49.358;11.256;2023-07-31T04:35:07;7.05;;;2.20;;
8642;SDS011;4359;49.358;11.256;2023-07-31T04:37:33;4.28;;;2.00;;
8642;SDS011;4359;49.358;11.256;2023-07-31T04:39:58;8.60;;;2.00;;
8642;SDS011;4359;49.358;11.256;2023-07-31T04:42:24;8.25;;;1.70;;
8642;SDS011;4359;49.358;11.256;2023-07-31T04:44:50;8.57;;;2.00;;
8642;SDS011;4359;49.358;11.256;2023-07-31T04:47:15;4.85;;;1.77;;
8642;SDS011;4359;49.358;11.256;2023-07-31T04:49:41;4.78;;;1.63;;
8642;SDS011;4359;49.358;11.256;2023-07-31T04:52:07;6.35;;;2.00;;
8642;SDS011;4359;49.358;11.256;2023-07-31T04:54:32;6.53;;;2.50;;
8642;SDS011;4359;49.358;11.256;2023-07-31T04:56:58;6.78;;;1.77;;
8642;SDS011;4359;49.358;11.256;2023-07-31T04:59:24;4.70;;;1.60;;
8642;SDS011;4359;49.358;11.256;2023-07-31T05:01:49;6.28;;;1.75;;
8642;SDS011;4359;49.358;11.256;2023-07-31T05:04:15;5.60;;;1.75;;
8642;SDS011;4359;49.358;11.256;2023-07-31T05:06:41;4.50;;;1.90;;
8642;SDS011;4359;49.358;11.256;2023-07-31T05:09:06;4.57;;;1.60;;
8642;SDS011;4359;49.358;11.256;2023-07-31T05:11:34;4.60;;;1.60;;
8642;SDS011;4359;49.358;11.256;2023-07-31T05:14:00;4.30;;;1.60;;
8642;SDS011;4359;49.358;11.256;2023-07-31T05:16:25;8.32;;;2.13;;
8642;SDS011;4359;49.358;11.256;2023-07-31T05:18:51;7.25;;;1.80;;
8642;SDS011;4359;49.358;11.256;2023-07-31T05:21:16;4.90;;;1.63;;
8642;SDS011;4359;49.358;11.256;2023-07-31T05:23:42;3.75;;;1.75;;
8642;SDS011;4359;49.358;11.256;2023-07-31T05:26:09;4.10;;;1.55;;
8642;SDS011;4359;49.358;11.256;2023-07-31T05:28:35;7.97;;;1.75;;
8642;SDS011;4359;49.358;11.256;2023-07-31T05:31:02;6.50;;;1.63;;
8642;SDS011;4359;49.358;11.256;2023-07-31T05:33:28;4.80;;;1.60;;
8642;SDS011;4359;49.358;11.256;2023-07-31T05:35:54;5.32;;;1.58;;
8642;SDS011;4359;49.358;11.256;2023-07-31T05:38:20;6.50;;;1.52;;
8642;SDS011;4359;49.358;11.256;2023-07-31T05:40:46;4.97;;;1.50;;
8642;SDS011;4359;49.358;11.256;2023-07-31T05:43:12;5.65;;;1.45;;
8642;SDS011;4359;49.358;11.256;2023-07-31T05:45:38;5.50;;;1.60;;
8642;SDS011;4359;49.358;11.256;2023-07-31T05:48:05;6.63;;;1.60;;
8642;SDS011;4359;49.358;11.256;2023-07-31T05:50:31;4.40;;;1.77;;
8642;SDS011;4359;49.358;11.256;2023-07-31T05:52:56;7.18;;;1.75;;
8642;SDS011;4359;49.358;11.256;2023-07-31T05:55:22;4.70;;;1.50;;
8642;SDS011;4359;49.358;11.256;2023-07-31T05:57:51;3.85;;;1.60;;
8642;SDS011;4359;49.358;11.256;2023-07-31T06:00:18;5.95;;;1.55;;
8642;SDS011;4359;49.358;11.256;2023-07-31T06:02:44;7.43;;;2.03;;
8642;SDS011;4359;49.358;11.256;2023-07-31T06:05:09;7.65;;;1.42;;
8642;SDS011;4359;49.358;11.256;2023-07-31T06:07:38;5.03;;;1.27;;
8642;SDS011;4359;49.358;11.256;2023-07-31T06:10:03;3.58;;;1.20;;
8642;SDS011;4359;49.358;11.256;2023-07-31T06:12:33;7.63;;;1.60;;
8642;SDS011;4359;49.358;11.256;2023-07-31T06:14:59;4.45;;;1.60;;
8642;SDS011;4359;49.358;11.256;2023-07-31T06:17:25;7.00;;;1.40;;
8642;SDS011;4359;49.358;11.256;2023-07-31T06:19:51;4.88;;;1.50;;
8642;SDS011;4359;49.358;11.256;2023-07-31T06:22:17;4.05;;;1.42;;
8642;SDS011;4359;49.358;11.256;2023-07-31T06:24:43;7.20;;;1.70;;
8642;SDS011;4359;49.358;11.256;2023-07-31T06:27:09;6.18;;;1.83;;
8642;SDS011;4359;49.358;11.256;2023-07-31T06:29:34;6.70;;;1.55;;
8642;SDS011;4359;49.358;11.256;2023-07-31T06:32:00;7.03;;;1.63;;
8642;SDS011;4359;49.358;11.256;2023-07-31T06:34:26;5.28;;;1.73;;
8642;SDS011;4359;49.358;11.256;2023-07-31T06:36:51;5.63;;;1.20;;
8642;SDS011;4359;49.358;11.256;2023-07-31T06:39:17;5.95;;;1.52;;
8642;SDS011;4359;49.358;11.256;2023-07-31T06:41:43;3.10;;;1.33;;
8642;SDS011;4359;49.358;11.256;2023-07-31T06:44:09;5.15;;;1.58;;
8642;SDS011;4359;49.358;11.256;2023-07-31T06:46:35;5.45;;;1.40;;
8642;SDS011;4359;49.358;11.256;2023-07-31T06:49:01;6.88;;;1.58;;
8642;SDS011;4359;49.358;11.256;2023-07-31T06:51:27;5.75;;;1.60;;
8642;SDS011;4359;49.358;11.256;2023-07-31T06:53:53;6.53;;;1.80;;
8642;SDS011;4359;49.358;11.256;2023-07-31T06:56:18;4.63;;;1.60;;
8642;SDS011;4359;49.358;11.256;2023-07-31T06:58:46;4.65;;;1.60;;
8642;SDS011;4359;49.358;11.256;2023-07-31T07:01:11;6.13;;;1.48;;
8642;SDS011;4359;49.358;11.256;2023-07-31T07:03:37;4.75;;;1.60;;
8642;SDS011;4359;49.358;11.256;2023-07-31T07:06:02;5.50;;;1.40;;
8642;SDS011;4359;49.358;11.256;2023-07-31T07:08:28;5.72;;;1.90;;
8642;SDS011;4359;49.358;11.256;2023-07-31T07:10:54;5.75;;;1.73;;
8642;SDS011;4359;49.358;11.256;2023-07-31T07:13:21;4.80;;;1.65;;
8642;SDS011;4359;49.358;11.256;2023-07-31T07:15:50;6.75;;;1.90;;
8642;SDS011;4359;49.358;11.256;2023-07-31T07:18:16;5.35;;;1.58;;
8642;SDS011;4359;49.358;11.256;2023-07-31T07:20:46;4.93;;;2.03;;
8642;SDS011;4359;49.358;11.256;2023-07-31T07:23:16;5.53;;;1.92;;
8642;SDS011;4359;49.358;11.256;2023-07-31T07:25:42;7.20;;;1.70;;
8642;SDS011;4359;49.358;11.256;2023-07-31T07:28:08;15.60;;;2.22;;
8642;SDS011;4359;49.358;11.256;2023-07-31T07:30:34;7.20;;;2.03;;
8642;SDS011;4359;49.358;11.256;2023-07-31T07:32:59;9.73;;;2.55;;
8642;SDS011;4359;49.358;11.256;2023-07-31T07:35:25;5.13;;;2.15;;
8642;SDS011;4359;49.358;11.256;2023-07-31T07:37:51;5.40;;;1.90;;
8642;SDS011;4359;49.358;11.256;2023-07-31T07:40:16;5.13;;;2.10;;
8642;SDS011;4359;49.358;11.256;2023-07-31T07:42:42;10.05;;;2.10;;
8642;SDS011;4359;49.358;11.256;2023-07-31T07:45:08;5.97;;;2.22;;
8642;SDS011;4359;49.358;11.256;2023-07-31T07:47:34;5.47;;;2.20;;
8642;SDS011;4359;49.358;11.256;2023-07-31T07:50:00;6.57;;;1.98;;
8642;SDS011;4359;49.358;11.256;2023-07-31T07:52:25;5.70;;;2.05;;
8642;SDS011;4359;49.358;11.256;2023-07-31T07:54:51;6.18;;;2.00;;
8642;SDS011;4359;49.358;11.256;2023-07-31T07:57:17;5.75;;;1.77;;
8642;SDS011;4359;49.358;11.256;2023-07-31T07:59:43;6.47;;;2.22;;
8642;SDS011;4359;49.358;11.256;2023-07-31T08:02:09;4.97;;;1.80;;
8642;SDS011;4359;49.358;11.256;2023-07-31T08:04:34;8.07;;;2.22;;
8642;SDS011;4359;49.358;11.256;2023-07-31T08:07:00;6.53;;;1.95;;
8642;SDS011;4359;49.358;11.256;2023-07-31T08:09:26;6.30;;;2.10;;
8642;SDS011;4359;49.358;11.256;2023-07-31T08:11:51;6.68;;;2.10;;
8642;SDS011;4359;49.358;11.256;2023-07-31T08:14:17;8.70;;;2.67;;
8642;SDS011;4359;49.358;11.256;2023-07-31T08:16:43;6.38;;;1.90;;
8642;SDS011;4359;49.358;11.256;2023-07-31T08:19:08;5.63;;;1.98;;
8642;SDS011;4359;49.358;11.256;2023-07-31T08:21:34;6.35;;;2.00;;
8642;SDS011;4359;49.358;11.256;2023-07-31T08:24:00;6.00;;;1.88;;
8642;SDS011;4359;49.358;11.256;2023-07-31T08:26:25;5.28;;;1.80;;
8642;SDS011;4359;49.358;11.256;2023-07-31T08:28:51;5.88;;;1.90;;
8642;SDS011;4359;49.358;11.256;2023-07-31T08:31:17;9.88;;;2.20;;
8642;SDS011;4359;49.358;11.256;2023-07-31T08:33:43;7.55;;;2.10;;
8642;SDS011;4359;49.358;11.256;2023-07-31T08:36:09;5.10;;;1.90;;
8642;SDS011;4359;49.358;11.256;2023-07-31T08:38:34;6.95;;;2.25;;
8642;SDS011;4359;49.358;11.256;2023-07-31T08:41:00;6.70;;;2.05;;
8642;SDS011;4359;49.358;11.256;2023-07-31T08:43:27;5.35;;;2.35;;
8642;SDS011;4359;49.358;11.256;2023-07-31T08:45:54;7.15;;;2.42;;
8642;SDS011;4359;49.358;11.256;2023-07-31T08:48:21;9.57;;;2.30;;
8642;SDS011;4359;49.358;11.256;2023-07-31T08:50:48;6.43;;;2.75;;
8642;SDS011;4359;49.358;11.256;2023-07-31T08:53:14;5.50;;;2.00;;
8642;SDS011;4359;49.358;11.256;2023-07-31T08:55:39;5.47;;;1.95;;
8642;SDS011;4359;49.358;11.256;2023-07-31T08:58:05;4.53;;;2.10;;
8642;SDS011;4359;49.358;11.256;2023-07-31T09:00:31;5.85;;;1.83;;
8642;SDS011;4359;49.358;11.256;2023-07-31T09:02:59;5.97;;;2.13;;
8642;SDS011;4359;49.358;11.256;2023-07-31T09:05:31;6.32;;;2.03;;
8642;SDS011;4359;49.358;11.256;2023-07-31T09:07:57;5.32;;;2.17;;
8642;SDS011;4359;49.358;11.256;2023-07-31T09:10:23;7.30;;;2.15;;
8642;SDS011;4359;49.358;11.256;2023-07-31T09:12:49;8.50;;;2.45;;
8642;SDS011;4359;49.358;11.256;2023-07-31T09:15:17;7.03;;;2.20;;
8642;SDS011;4359;49.358;11.256;2023-07-31T09:17:43;7.65;;;2.65;;
8642;SDS011;4359;49.358;11.256;2023-07-31T09:20:18;5.22;;;2.00;;
8642;SDS011;4359;49.358;11.256;2023-07-31T09:22:45;4.75;;;1.98;;
8642;SDS011;4359;49.358;11.256;2023-07-31T09:25:22;7.30;;;1.90;;
8642;SDS011;4359;49.358;11.256;2023-07-31T09:27:59;10.40;;;1.90;;
8642;SDS011;4359;49.358;11.256;2023-07-31T09:30:27;6.47;;;1.90;;
8642;SDS011;4359;49.358;11.256;2023-07-31T09:33:05;6.78;;;1.83;;
8642;SDS011;4359;49.358;11.256;2023-07-31T09:35:32;9.65;;;2.13;;
8642;SDS011;4359;49.358;11.256;2023-07-31T09:40:35;3.80;;;1.83;;
8642;SDS011;4359;49.358;11.256;2023-07-31T09:43:02;5.93;;;1.85;;
8642;SDS011;4359;49.358;11.256;2023-07-31T09:45:29;7.00;;;1.80;;
8642;SDS011;4359;49.358;11.256;2023-07-31T09:47:58;6.20;;;1.70;;
8642;SDS011;4359;49.358;11.256;2023-07-31T09:50:24;5.32;;;1.95;;
8642;SDS011;4359;49.358;11.256;2023-07-31T09:52:50;5.53;;;2.28;;
8642;SDS011;4359;49.358;11.256;2023-07-31T09:55:17;5.95;;;1.70;;
8642;SDS011;4359;49.358;11.256;2023-07-31T09:57:47;4.97;;;2.15;;
8642;SDS011;4359;49.358;11.256;2023-07-31T10:00:14;5.93;;;1.77;;
8642;SDS011;4359;49.358;11.256;2023-07-31T10:02:44;5.18;;;1.77;;
8642;SDS011;4359;49.358;11.256;2023-07-31T10:05:12;4.85;;;1.70;;
8642;SDS011;4359;49.358;11.256;2023-07-31T10:07:42;8.15;;;1.67;;
8642;SDS011;4359;49.358;11.256;2023-07-31T10:10:10;6.20;;;1.52;;
8642;SDS011;4359;49.358;11.256;2023-07-31T10:12:38;4.63;;;1.73;;
8642;SDS011;4359;49.358;11.256;2023-07-31T10:15:04;7.28;;;1.85;;
8642;SDS011;4359;49.358;11.256;2023-07-31T10:17:31;6.45;;;1.77;;
8642;SDS011;4359;49.358;11.256;2023-07-31T10:19:58;4.18;;;1.50;;
8642;SDS011;4359;49.358;11.256;2023-07-31T10:22:26;5.07;;;1.75;;
8642;SDS011;4359;49.358;11.256;2023-07-31T10:24:52;5.90;;;1.60;;
8642;SDS011;4359;49.358;11.256;2023-07-31T10:27:19;4.45;;;1.63;;
8642;SDS011;4359;49.358;11.256;2023-07-31T10:29:45;4.10;;;1.70;;
8642;SDS011;4359;49.358;11.256;2023-07-31T10:32:12;5.25;;;1.70;;
8642;SDS011;4359;49.358;11.256;2023-07-31T10:34:40;8.05;;;2.28;;
8642;SDS011;4359;49.358;11.256;2023-07-31T10:37:19;4.35;;;1.70;;
8642;SDS011;4359;49.358;11.256;2023-07-31T10:42:33;6.00;;;2.03;;
8642;SDS011;4359;49.358;11.256;2023-07-31T10:45:02;6.43;;;1.70;;
8642;SDS011;4359;49.358;11.256;2023-07-31T10:47:29;7.20;;;1.90;;
8642;SDS011;4359;49.358;11.256;2023-07-31T10:50:15;3.95;;;1.70;;
8642;SDS011;4359;49.358;11.256;2023-07-31T10:52:48;5.20;;;1.65;;
8642;SDS011;4359;49.358;11.256;2023-07-31T10:57:54;5.05;;;1.73;;
8642;SDS011;4359;49.358;11.256;2023-07-31T11:00:31;6.05;;;1.85;;
8642;SDS011;4359;49.358;11.256;2023-07-31T11:10:46;5.75;;;1.83;;
8642;SDS011;4359;49.358;11.256;2023-07-31T11:13:12;5.20;;;1.58;;
8642;SDS011;4359;49.358;11.256;2023-07-31T11:15:38;5.10;;;1.65;;
8642;SDS011;4359;49.358;11.256;2023-07-31T11:18:04;5.28;;;2.05;;
8642;SDS011;4359;49.358;11.256;2023-07-31T11:20:31;3.47;;;1.70;;
8642;SDS011;4359;49.358;11.256;2023-07-31T11:23:01;3.83;;;1.85;;
8642;SDS011;4359;49.358;11.256;2023-07-31T11:25:30;6.97;;;1.80;;
8642;SDS011;4359;49.358;11.256;2023-07-31T11:27:57;5.03;;;1.75;;
8642;SDS011;4359;49.358;11.256;2023-07-31T11:30:34;8.02;;;2.15;;
8642;SDS011;4359;49.358;11.256;2023-07-31T11:33:04;4.97;;;1.80;;
8642;SDS011;4359;49.358;11.256;2023-07-31T11:35:34;5.35;;;1.70;;
8642;SDS011;4359;49.358;11.256;2023-07-31T11:38:01;4.00;;;1.85;;
8642;SDS011;4359;49.358;11.256;2023-07-31T11:40:27;6.10;;;1.88;;
8642;SDS011;4359;49.358;11.256;2023-07-31T11:42:57;4.85;;;2.13;;
8642;SDS011;4359;49.358;11.256;2023-07-31T11:45:28;4.88;;;1.90;;
8642;SDS011;4359;49.358;11.256;2023-07-31T11:47:55;7.07;;;1.70;;
8642;SDS011;4359;49.358;11.256;2023-07-31T11:50:22;6.13;;;1.92;;
8642;SDS011;4359;49.358;11.256;2023-07-31T11:52:51;5.75;;;2.03;;
8642;SDS011;4359;49.358;11.256;2023-07-31T11:55:20;5.18;;;2.17;;
8642;SDS011;4359;49.358;11.256;2023-07-31T11:57:46;6.50;;;2.20;;
8642;SDS011;4359;49.358;11.256;2023-07-31T12:00:12;6.18;;;2.03;;
8642;SDS011;4359;49.358;11.256;2023-07-31T12:02:39;5.05;;;2.00;;
8642;SDS011;4359;49.358;11.256;2023-07-31T12:05:06;4.80;;;1.90;;
8642;SDS011;4359;49.358;11.256;2023-07-31T12:07:43;6.10;;;2.15;;
8642;SDS011;4359;49.358;11.256;2023-07-31T12:10:10;6.75;;;2.20;;
8642;SDS011;4359;49.358;11.256;2023-07-31T12:12:36;4.72;;;2.20;;
8642;SDS011;4359;49.358;11.256;2023-07-31T12:15:02;10.75;;;2.63;;
8642;SDS011;4359;49.358;11.256;2023-07-31T12:17:37;7.35;;;2.30;;
8642;SDS011;4359;49.358;11.256;2023-07-31T12:20:04;5.93;;;2.10;;
8642;SDS011;4359;49.358;11.256;2023-07-31T12:22:30;6.35;;;2.10;;
8642;SDS011;4359;49.358;11.256;2023-07-31T12:24:56;5.43;;;2.20;;
8642;SDS011;4359;49.358;11.256;2023-07-31T12:27:21;5.03;;;2.33;;
8642;SDS011;4359;49.358;11.256;2023-07-31T12:29:49;5.32;;;2.13;;
8642;SDS011;4359;49.358;11.256;2023-07-31T12:32:19;5.72;;;2.35;;
8642;SDS011;4359;49.358;11.256;2023-07-31T12:34:45;7.88;;;2.17;;
8642;SDS011;4359;49.358;11.256;2023-07-31T12:37:11;6.63;;;2.58;;
8642;SDS011;4359;49.358;11.256;2023-07-31T12:39:37;6.13;;;2.03;;
8642;SDS011;4359;49.358;11.256;2023-07-31T12:42:03;6.68;;;2.30;;
8642;SDS011;4359;49.358;11.256;2023-07-31T12:44:29;5.10;;;2.28;;
8642;SDS011;4359;49.358;11.256;2023-07-31T12:46:54;5.53;;;2.20;;
8642;SDS011;4359;49.358;11.256;2023-07-31T12:49:20;5.13;;;2.08;;
8642;SDS011;4359;49.358;11.256;2023-07-31T12:51:45;4.38;;;2.17;;
8642;SDS011;4359;49.358;11.256;2023-07-31T12:54:12;6.68;;;2.20;;
8642;SDS011;4359;49.358;11.256;2023-07-31T12:56:37;5.32;;;2.20;;
8642;SDS011;4359;49.358;11.256;2023-07-31T12:59:03;8.02;;;2.30;;
8642;SDS011;4359;49.358;11.256;2023-07-31T13:01:29;6.80;;;2.55;;
8642;SDS011;4359;49.358;11.256;2023-07-31T13:03:54;4.30;;;2.28;;
8642;SDS011;4359;49.358;11.256;2023-07-31T13:06:20;5.30;;;2.53;;
8642;SDS011;4359;49.358;11.256;2023-07-31T13:08:46;8.15;;;3.17;;
8642;SDS011;4359;49.358;11.256;2023-07-31T13:11:12;7.63;;;2.67;;
8642;SDS011;4359;49.358;11.256;2023-07-31T13:13:37;7.80;;;2.72;;
8642;SDS011;4359;49.358;11.256;2023-07-31T13:16:03;7.32;;;2.72;;
8642;SDS011;4359;49.358;11.256;2023-07-31T13:18:29;6.55;;;3.00;;
8642;SDS011;4359;49.358;11.256;2023-07-31T13:20:54;8.32;;;2.90;;
8642;SDS011;4359;49.358;11.256;2023-07-31T13:23:20;7.18;;;2.97;;
8642;SDS011;4359;49.358;11.256;2023-07-31T13:25:46;8.73;;;2.88;;
8642;SDS011;4359;49.358;11.256;2023-07-31T13:28:12;5.68;;;2.47;;
8642;SDS011;4359;49.358;11.256;2023-07-31T13:30:37;6.20;;;2.80;;
8642;SDS011;4359;49.358;11.256;2023-07-31T13:33:03;9.50;;;3.13;;
8642;SDS011;4359;49.358;11.256;2023-07-31T13:35:28;11.68;;;2.95;;
8642;SDS011;4359;49.358;11.256;2023-07-31T13:37:56;5.70;;;2.80;;
8642;SDS011;4359;49.358;11.256;2023-07-31T13:40:22;5.82;;;2.60;;
8642;SDS011;4359;49.358;11.256;2023-07-31T13:42:48;6.20;;;2.70;;
8642;SDS011;4359;49.358;11.256;2023-07-31T13:45:13;5.97;;;2.70;;
8642;SDS011;4359;49.358;11.256;2023-07-31T13:47:39;10.60;;;2.97;;
8642;SDS011;4359;49.358;11.256;2023-07-31T13:50:05;7.15;;;2.80;;
8642;SDS011;4359;49.358;11.256;2023-07-31T13:52:31;7.95;;;2.70;;
8642;SDS011;4359;49.358;11.256;2023-07-31T13:54:56;11.48;;;3.05;;
8642;SDS011;4359;49.358;11.256;2023-07-31T13:57:22;6.18;;;2.78;;
8642;SDS011;4359;49.358;11.256;2023-07-31T13:59:48;6.97;;;3.00;;
8642;SDS011;4359;49.358;11.256;2023-07-31T14:02:14;5.93;;;2.40;;
8642;SDS011;4359;49.358;11.256;2023-07-31T14:04:40;5.88;;;3.00;;
8642;SDS011;4359;49.358;11.256;2023-07-31T14:07:06;6.70;;;2.63;;
8642;SDS011;4359;49.358;11.256;2023-07-31T14:09:32;6.63;;;2.60;;
8642;SDS011;4359;49.358;11.256;2023-07-31T14:11:57;6.60;;;2.63;;
8642;SDS011;4359;49.358;11.256;2023-07-31T14:14:23;7.57;;;2.70;;
8642;SDS011;4359;49.358;11.256;2023-07-31T14:16:48;6.18;;;2.85;;
8642;SDS011;4359;49.358;11.256;2023-07-31T14:19:14;10.52;;;2.92;;
8642;SDS011;4359;49.358;11.256;2023-07-31T14:21:40;4.97;;;2.40;;
8642;SDS011;4359;49.358;11.256;2023-07-31T14:24:05;4.80;;;2.50;;
8642;SDS011;4359;49.358;11.256;2023-07-31T14:26:31;5.53;;;2.53;;
8642;SDS011;4359;49.358;11.256;2023-07-31T14:28:57;6.63;;;2.47;;
8642;SDS011;4359;49.358;11.256;2023-07-31T14:31:22;5.28;;;2.25;;
8642;SDS011;4359;49.358;11.256;2023-07-31T14:33:48;4.97;;;2.38;;
8642;SDS011;4359;49.358;11.256;2023-07-31T14:36:14;5.45;;;2.58;;
8642;SDS011;4359;49.358;11.256;2023-07-31T14:38:39;6.03;;;2.30;;
8642;SDS011;4359;49.358;11.256;2023-07-31T14:41:05;6.18;;;2.60;;
8642;SDS011;4359;49.358;11.256;2023-07-31T14:43:31;5.45;;;2.55;;
8642;SDS011;4359;49.358;11.256;2023-07-31T14:45:57;6.43;;;2.33;;
8642;SDS011;4359;49.358;11.256;2023-07-31T14:48:24;6.60;;;2.35;;
8642;SDS011;4359;49.358;11.256;2023-07-31T14:50:51;7.07;;;2.72;;
8642;SDS011;4359;49.358;11.256;2023-07-31T14:53:17;6.65;;;2.85;;
8642;SDS011;4359;49.358;11.256;2023-07-31T14:55:42;6.65;;;2.55;;
8642;SDS011;4359;49.358;11.256;2023-07-31T14:58:08;4.28;;;2.05;;
8642;SDS011;4359;49.358;11.256;2023-07-31T15:00:35;4.72;;;2.22;;
8642;SDS011;4359;49.358;11.256;2023-07-31T15:03:02;3.92;;;2.20;;
8642;SDS011;4359;49.358;11.256;2023-07-31T15:05:27;6.35;;;2.35;;
8642;SDS011;4359;49.358;11.256;2023-07-31T15:07:56;7.05;;;2.67;;
8642;SDS011;4359;49.358;11.256;2023-07-31T15:10:21;6.38;;;2.60;;
8642;SDS011;4359;49.358;11.256;2023-07-31T15:12:47;6.28;;;2.45;;
8642;SDS011;4359;49.358;11.256;2023-07-31T15:15:13;6.90;;;2.28;;
8642;SDS011;4359;49.358;11.256;2023-07-31T15:17:40;9.25;;;2.70;;
8642;SDS011;4359;49.358;11.256;2023-07-31T15:20:05;7.28;;;2.28;;